MOL Celebration — C6WW7 — position and weather

sailwx.info

Track history (hours):
 
Tides and Currents Weather Stations Pressure Air Temp Water Temp Dewpoint Dewpoint Depression Visibility Wind Speed Wind Dir Waves Ship Positions

MOL Celebration

Last reported at 2016-Jun-23 08:05 UTC. Time now 2016-Jun-26 13:50 UTC.
Position N 35°44' E 142°04'.

Length 316 m; draft 12.6 m.

Type: Ship (hazmat cat D). MMSI: 309901000.

Date/timePositionNaut miles runAvg speedWind from/ knotsBaromVisibWave heightAir tempDewpointWater temp
2016-Jun-23 08:05N 35°44' E 142°04'7719.2
2016-Jun-23 04:06N 35°07' E 140°42'1119.4
2016-Jun-23 03:33N 35°02' E 140°31'1919.3
2016-Jun-23 02:34N 34°53' E 140°11'1919.4
2016-Jun-23 01:33N 34°45' E 139°49'  
2016-Jun-20 08:30N 23°57' E 118°39'25518.1
2016-Jun-19 18:26N 22°07' E 114°29'24 8.3
2016-Jun-19 15:33N 22°19' E 114°07'1 0.7
2016-Jun-19 14:32N 22°20' E 114°08'0 0.0
2016-Jun-19 12:16N 22°20' E 114°08'0 0.0
2016-Jun-19 11:13N 22°20' E 114°08'0 0.0
2016-Jun-19 10:29N 22°20' E 114°08'0 0.0
2016-Jun-19 08:31N 22°20' E 114°08'0 0.0
2016-Jun-19 07:26N 22°20' E 114°08'0 0.1
2016-Jun-19 06:33N 22°20' E 114°08'0 0.0
2016-Jun-19 04:21N 22°20' E 114°08'0 0.0
2016-Jun-19 03:33N 22°20' E 114°08'0 0.0
2016-Jun-19 02:33N 22°20' E 114°08'0 0.0
2016-Jun-19 01:34N 22°20' E 114°08'0 0.0
2016-Jun-19 00:33N 22°20' E 114°08'0 0.0
2016-Jun-18 23:33N 22°20' E 114°08'0 0.0
2016-Jun-18 22:33N 22°20' E 114°08'0 0.0
2016-Jun-18 21:33N 22°20' E 114°08'0 0.0
2016-Jun-18 20:33N 22°20' E 114°08'0 0.2
2016-Jun-18 19:33N 22°20' E 114°08'15 6.7
2016-Jun-18 17:15N 22°08' E 114°18'5 6.4
2016-Jun-18 16:33N 22°05' E 114°22'8 7.9
2016-Jun-18 15:33N 21°57' E 114°24'  
Track history (hours):
 
Tides and Currents Weather Stations Pressure Air Temp Water Temp Dewpoint Dewpoint Depression Visibility Wind Speed Wind Dir Waves Ship Positions

MOL Celebration

Last reported at 2016-Jun-23 08:05 UTC. Time now 2016-Jun-26 13:50 UTC.
Position N 35°44' E 142°04'.

Length 316 m; draft 12.6 m.

Type: Ship (hazmat cat D). MMSI: 309901000.

Date/timePositionNaut miles runAvg speedWind from/ knotsBaromVisibWave heightAir tempDewpointWater temp
2016-Jun-23 08:05N 35°44' E 142°04'7719.2
2016-Jun-23 04:06N 35°07' E 140°42'1119.4
2016-Jun-23 03:33N 35°02' E 140°31'1919.3
2016-Jun-23 02:34N 34°53' E 140°11'1919.4
2016-Jun-23 01:33N 34°45' E 139°49'  
2016-Jun-20 08:30N 23°57' E 118°39'25518.1
2016-Jun-19 18:26N 22°07' E 114°29'24 8.3
2016-Jun-19 15:33N 22°19' E 114°07'1 0.7
2016-Jun-19 14:32N 22°20' E 114°08'0 0.0
2016-Jun-19 12:16N 22°20' E 114°08'0 0.0
2016-Jun-19 11:13N 22°20' E 114°08'0 0.0
2016-Jun-19 10:29N 22°20' E 114°08'0 0.0
2016-Jun-19 08:31N 22°20' E 114°08'0 0.0
2016-Jun-19 07:26N 22°20' E 114°08'0 0.1
2016-Jun-19 06:33N 22°20' E 114°08'0 0.0
2016-Jun-19 04:21N 22°20' E 114°08'0 0.0
2016-Jun-19 03:33N 22°20' E 114°08'0 0.0
2016-Jun-19 02:33N 22°20' E 114°08'0 0.0
2016-Jun-19 01:34N 22°20' E 114°08'0 0.0
2016-Jun-19 00:33N 22°20' E 114°08'0 0.0
2016-Jun-18 23:33N 22°20' E 114°08'0 0.0
2016-Jun-18 22:33N 22°20' E 114°08'0 0.0
2016-Jun-18 21:33N 22°20' E 114°08'0 0.0
2016-Jun-18 20:33N 22°20' E 114°08'0 0.2
2016-Jun-18 19:33N 22°20' E 114°08'15 6.7
2016-Jun-18 17:15N 22°08' E 114°18'5 6.4
2016-Jun-18 16:33N 22°05' E 114°22'8 7.9
2016-Jun-18 15:33N 21°57' E 114°24'  

Dump ship's entire track history